createdAt,value
2023-04-18T00:00:29.664Z,34.92
2023-04-18T00:03:15.192Z,34.73
2023-04-18T00:06:00.299Z,35.22
2023-04-18T00:08:45.762Z,35.21
2023-04-18T00:11:31.238Z,34.86
2023-04-18T00:14:16.689Z,34.75
2023-04-18T00:17:02.253Z,34.87
2023-04-18T00:19:47.638Z,34.71
2023-04-18T00:22:33.003Z,34.79
2023-04-18T00:25:18.327Z,34.62
2023-04-18T00:28:03.937Z,34.55
2023-04-18T00:30:49.292Z,35.09
2023-04-18T00:33:34.768Z,34.96
2023-04-18T00:36:20.064Z,35.05
2023-04-18T00:39:05.627Z,34.52
2023-04-18T00:41:51.030Z,34.79
2023-04-18T00:44:36.463Z,34.92
2023-04-18T00:47:22.129Z,35.13
2023-04-18T00:50:10.514Z,34.97
2023-04-18T00:52:55.968Z,34.61
2023-04-18T00:55:41.335Z,34.86
2023-04-18T00:58:26.506Z,34.70
2023-04-18T01:01:11.617Z,35.01
2023-04-18T01:03:56.927Z,35.14
2023-04-18T01:06:42.300Z,34.57
2023-04-18T01:09:27.639Z,34.57
2023-04-18T01:12:13.236Z,35.19
2023-04-18T01:14:58.638Z,34.58
2023-04-18T01:17:43.951Z,34.87
2023-04-18T01:20:29.300Z,34.56
2023-04-18T01:23:15.003Z,35.08
2023-04-18T01:26:02.996Z,35.25
2023-04-18T01:28:48.113Z,35.19
2023-04-18T01:31:36.450Z,34.95
2023-04-18T01:34:21.390Z,34.23
2023-04-18T01:37:06.486Z,34.76
2023-04-18T01:39:51.758Z,34.89
2023-04-18T01:42:40.236Z,35.13
2023-04-18T01:45:25.720Z,35.02
2023-04-18T01:48:12.130Z,34.55
2023-04-18T01:50:57.445Z,34.87
2023-04-18T01:53:42.823Z,35.03
2023-04-18T01:56:28.189Z,34.96
2023-04-18T01:59:13.551Z,34.68
2023-04-18T02:01:59.067Z,34.83
2023-04-18T02:04:44.192Z,34.97
2023-04-18T02:07:29.478Z,34.39
2023-04-18T02:10:14.889Z,34.78
2023-04-18T02:13:00.355Z,34.71
2023-04-18T02:15:45.770Z,34.21
2023-04-18T02:18:31.329Z,34.93
2023-04-18T02:21:16.400Z,34.70
2023-04-18T02:24:02.835Z,34.47
2023-04-18T02:26:48.345Z,34.89
2023-04-18T02:29:33.632Z,34.44
2023-04-18T02:32:19.155Z,34.53
2023-04-18T02:35:04.538Z,34.48
2023-04-18T02:37:49.944Z,34.33
2023-04-18T02:40:35.401Z,34.28
2023-04-18T02:43:20.618Z,34.77
2023-04-18T02:46:05.718Z,34.94
2023-04-18T02:48:50.956Z,34.66
2023-04-18T02:51:36.246Z,34.54
2023-04-18T02:54:21.678Z,34.76
2023-04-18T02:57:08.261Z,34.68
2023-04-18T02:59:53.573Z,34.94
2023-04-18T03:02:38.879Z,34.79
2023-04-18T03:05:23.993Z,34.74
2023-04-18T03:08:09.424Z,35.05
2023-04-18T03:10:56.255Z,34.57
2023-04-18T03:13:41.618Z,34.58
2023-04-18T03:16:27.016Z,34.64
2023-04-18T03:19:13.463Z,34.71
2023-04-18T03:21:58.716Z,34.58
2023-04-18T03:24:44.183Z,34.82
2023-04-18T03:27:29.773Z,34.94
2023-04-18T03:30:17.881Z,34.42
2023-04-18T03:33:03.405Z,34.48
2023-04-18T03:35:48.935Z,34.64
2023-04-18T03:38:34.168Z,34.99
2023-04-18T03:41:19.766Z,34.76
2023-04-18T03:44:05.064Z,35.18
2023-04-18T03:46:50.605Z,34.64
2023-04-18T03:49:36.137Z,34.59
2023-04-18T03:52:21.588Z,34.99
2023-04-18T03:55:06.657Z,34.62
2023-04-18T03:57:52.029Z,34.15
2023-04-18T04:00:37.307Z,34.53
2023-04-18T04:03:22.785Z,34.99
2023-04-18T04:06:08.128Z,34.48
2023-04-18T04:08:53.737Z,34.51
2023-04-18T04:11:39.017Z,34.50
2023-04-18T04:14:23.991Z,34.92
2023-04-18T04:17:09.389Z,34.36
2023-04-18T04:19:54.777Z,34.80
2023-04-18T04:22:40.055Z,34.77
2023-04-18T04:25:25.303Z,35.05
2023-04-18T04:28:10.691Z,34.75
2023-04-18T04:30:56.057Z,34.69
2023-04-18T04:33:41.452Z,34.70
2023-04-18T04:36:26.923Z,34.87
2023-04-18T04:39:12.199Z,34.65
2023-04-18T04:41:57.386Z,34.31
2023-04-18T04:44:42.732Z,34.29
2023-04-18T04:47:28.052Z,34.49
2023-04-18T04:50:13.274Z,34.60
2023-04-18T04:52:58.708Z,34.01
2023-04-18T04:55:44.133Z,34.50
2023-04-18T04:58:29.457Z,34.14
2023-04-18T05:01:14.888Z,34.77
2023-04-18T05:04:02.576Z,34.83
2023-04-18T05:06:48.098Z,34.70
2023-04-18T05:09:33.552Z,34.84
2023-04-18T05:12:18.954Z,34.58
2023-04-18T05:15:04.442Z,34.71
2023-04-18T05:17:49.926Z,34.66
2023-04-18T05:20:35.375Z,34.43
2023-04-18T05:23:20.951Z,34.73
2023-04-18T05:26:06.138Z,34.20
2023-04-18T05:28:51.346Z,34.21
2023-04-18T05:31:36.597Z,34.54
2023-04-18T05:34:21.925Z,34.48
2023-04-18T05:37:07.316Z,34.64
2023-04-18T05:39:52.492Z,34.94
2023-04-18T05:42:37.852Z,34.67
2023-04-18T05:45:23.264Z,34.83
2023-04-18T05:48:08.791Z,34.46
2023-04-18T05:50:54.009Z,34.80
2023-04-18T05:53:39.578Z,36.59
2023-04-18T05:56:24.924Z,36.29
2023-04-18T05:59:10.348Z,36.67
2023-04-18T06:01:58.738Z,37.00
2023-04-18T06:04:44.240Z,36.83
2023-04-18T06:07:29.834Z,38.52
2023-04-18T06:10:15.247Z,38.30
2023-04-18T06:13:00.492Z,39.27
2023-04-18T06:15:45.964Z,38.15
2023-04-18T06:18:31.095Z,40.30
2023-04-18T06:21:16.406Z,39.99
2023-04-18T06:24:01.803Z,40.72
2023-04-18T06:26:47.082Z,40.74
2023-04-18T06:29:32.186Z,40.57
2023-04-18T06:32:17.401Z,41.50
2023-04-18T06:35:03.036Z,41.72
2023-04-18T06:37:48.476Z,41.99
2023-04-18T06:40:33.866Z,41.82
2023-04-18T06:43:21.641Z,41.48
2023-04-18T06:46:06.779Z,41.25
2023-04-18T06:48:52.073Z,41.61
2023-04-18T06:51:37.619Z,41.39
2023-04-18T06:54:22.900Z,41.26
2023-04-18T06:57:08.070Z,40.83
2023-04-18T06:59:53.106Z,40.26
2023-04-18T07:02:38.632Z,39.61
2023-04-18T07:05:23.758Z,39.46
2023-04-18T07:08:09.187Z,38.80
2023-04-18T07:10:54.465Z,39.77
2023-04-18T07:13:39.690Z,39.92
2023-04-18T07:16:25.174Z,39.33
2023-04-18T07:19:10.340Z,39.61
2023-04-18T07:21:55.747Z,39.05
2023-04-18T07:24:41.109Z,38.80
2023-04-18T07:27:26.433Z,38.65
2023-04-18T07:30:11.863Z,38.33
2023-04-18T07:32:57.161Z,37.98
2023-04-18T07:35:42.562Z,37.32
2023-04-18T07:38:27.732Z,37.45
2023-04-18T07:41:12.903Z,37.73
2023-04-18T07:44:01.363Z,37.31
2023-04-18T07:46:46.588Z,36.59
2023-04-18T07:49:32.135Z,37.11
2023-04-18T07:52:17.701Z,37.41
2023-04-18T07:55:03.103Z,37.00
2023-04-18T07:57:50.691Z,37.26
2023-04-18T08:00:38.475Z,36.91
2023-04-18T08:03:24.554Z,36.67
2023-04-18T08:06:12.109Z,36.79
2023-04-18T08:08:57.323Z,36.60
2023-04-18T08:11:42.476Z,36.51
2023-04-18T08:14:27.777Z,36.45
2023-04-18T08:17:13.168Z,35.96
2023-04-18T08:19:58.720Z,36.02
2023-04-18T08:22:57.735Z,36.55
2023-04-18T08:25:49.052Z,36.31
2023-04-18T08:28:34.536Z,36.20
2023-04-18T08:31:19.767Z,36.19
2023-04-18T08:34:05.360Z,35.71
2023-04-18T08:36:50.696Z,35.96
2023-04-18T08:39:36.807Z,36.50
2023-04-18T08:42:25.351Z,36.63
2023-04-18T08:45:10.705Z,36.70
2023-04-18T08:47:56.121Z,36.56
2023-04-18T08:50:41.442Z,36.37
2023-04-18T08:53:27.882Z,36.84
2023-04-18T08:56:13.134Z,37.11
2023-04-18T08:58:58.545Z,37.04
2023-04-18T09:01:43.836Z,37.31
2023-04-18T09:04:29.284Z,36.79
2023-04-18T09:07:14.464Z,37.00
2023-04-18T09:10:00.002Z,36.49
2023-04-18T09:12:44.984Z,36.54
2023-04-18T09:15:30.135Z,36.30
2023-04-18T09:18:15.286Z,36.24
2023-04-18T09:21:00.446Z,36.18
2023-04-18T09:23:45.721Z,36.70
2023-04-18T09:26:31.092Z,36.43
2023-04-18T09:29:16.502Z,36.55
2023-04-18T09:32:02.012Z,36.43
2023-04-18T09:34:47.382Z,36.30
2023-04-18T09:37:32.661Z,36.60
2023-04-18T09:40:18.056Z,36.32
2023-04-18T09:43:03.364Z,36.44
2023-04-18T09:45:48.704Z,36.25
2023-04-18T09:48:34.064Z,36.25
2023-04-18T09:51:19.428Z,36.20
2023-04-18T09:54:04.870Z,36.32
2023-04-18T09:56:50.411Z,36.27
2023-04-18T09:59:35.689Z,36.17
2023-04-18T10:02:21.383Z,36.49
2023-04-18T10:05:06.796Z,35.95
2023-04-18T10:07:52.013Z,36.44
2023-04-18T10:10:38.950Z,36.50
2023-04-18T10:13:24.159Z,36.33
2023-04-18T10:16:09.373Z,36.54
2023-04-18T10:18:54.865Z,36.51
2023-04-18T10:21:43.157Z,36.04
2023-04-18T10:24:28.697Z,36.08
2023-04-18T10:27:14.333Z,36.24
2023-04-18T10:29:59.568Z,35.92
2023-04-18T10:32:45.027Z,36.22
2023-04-18T10:35:30.202Z,36.36
2023-04-18T10:38:15.567Z,36.38
2023-04-18T10:41:01.162Z,36.20
2023-04-18T10:43:46.106Z,36.67
2023-04-18T10:46:32.802Z,36.26
2023-04-18T10:49:18.470Z,36.42
2023-04-18T10:52:03.851Z,36.64
2023-04-18T10:54:49.185Z,36.94
2023-04-18T10:57:34.631Z,36.82
2023-04-18T11:00:20.223Z,37.05
2023-04-18T11:03:05.779Z,36.71
2023-04-18T11:05:51.408Z,37.15
2023-04-18T11:08:37.233Z,36.92
2023-04-18T11:11:22.784Z,37.39
2023-04-18T11:14:08.659Z,37.67
2023-04-18T11:16:53.964Z,37.44
2023-04-18T11:19:39.409Z,37.41
2023-04-18T11:22:24.728Z,37.10
2023-04-18T11:25:10.380Z,37.44
2023-04-18T11:27:55.705Z,37.36
2023-04-18T11:30:41.042Z,37.48
2023-04-18T11:33:26.456Z,37.56
2023-04-18T11:36:11.847Z,37.48
2023-04-18T11:38:57.164Z,37.13
2023-04-18T11:41:42.690Z,37.48
2023-04-18T11:44:28.067Z,37.34
2023-04-18T11:47:13.386Z,37.20
2023-04-18T11:49:58.816Z,37.03
2023-04-18T11:52:44.137Z,37.11
2023-04-18T11:55:29.376Z,37.05
2023-04-18T11:58:14.708Z,37.03
2023-04-18T12:00:59.990Z,36.65
2023-04-18T12:03:45.300Z,36.88
2023-04-18T12:06:30.766Z,37.43
2023-04-18T12:09:16.012Z,36.92
2023-04-18T12:12:01.488Z,37.23
2023-04-18T12:14:46.916Z,36.90
2023-04-18T12:17:32.134Z,37.00
2023-04-18T12:20:17.501Z,37.12
2023-04-18T12:23:02.865Z,37.34
2023-04-18T12:25:48.365Z,37.08
2023-04-18T12:28:33.609Z,37.03
2023-04-18T12:31:19.100Z,37.18
2023-04-18T12:34:04.491Z,37.17
2023-04-18T12:36:49.790Z,37.13
2023-04-18T12:39:34.872Z,36.89
2023-04-18T12:42:19.804Z,37.09
2023-04-18T12:45:05.279Z,36.54
2023-04-18T12:47:50.646Z,36.53
2023-04-18T12:50:35.991Z,36.54
2023-04-18T12:53:21.573Z,36.39
2023-04-18T12:56:06.717Z,36.27
2023-04-18T12:58:52.234Z,36.14
2023-04-18T13:01:37.466Z,35.81
2023-04-18T13:04:23.121Z,35.88
2023-04-18T13:07:08.146Z,36.14
2023-04-18T13:09:53.506Z,36.35
2023-04-18T13:12:41.769Z,35.90
2023-04-18T13:15:27.498Z,35.93
2023-04-18T13:18:12.828Z,35.95
2023-04-18T13:20:58.332Z,35.49
2023-04-18T13:23:43.632Z,35.23
2023-04-18T13:26:29.052Z,35.18
2023-04-18T13:29:14.543Z,35.70
2023-04-18T13:31:59.703Z,35.49
2023-04-18T13:34:45.034Z,34.96
2023-04-18T13:37:30.324Z,35.36
2023-04-18T13:40:15.796Z,35.99
2023-04-18T13:43:00.826Z,35.46
2023-04-18T13:45:46.394Z,35.62
2023-04-18T13:48:31.696Z,37.04
2023-04-18T13:51:17.040Z,37.24
2023-04-18T13:54:02.579Z,37.30
2023-04-18T13:56:47.910Z,37.22
2023-04-18T13:59:33.359Z,37.25
2023-04-18T14:02:18.759Z,37.45
2023-04-18T14:05:04.236Z,36.81
2023-04-18T14:07:49.475Z,37.33
2023-04-18T14:10:34.727Z,36.00
2023-04-18T14:13:20.118Z,36.74
2023-04-18T14:16:05.384Z,36.75
2023-04-18T14:18:50.757Z,37.37
2023-04-18T14:21:36.122Z,37.28
2023-04-18T14:24:21.479Z,37.37
2023-04-18T14:27:06.858Z,37.48
2023-04-18T14:29:52.248Z,37.06
2023-04-18T14:32:37.719Z,36.53
2023-04-18T14:35:23.061Z,36.78
2023-04-18T14:38:08.428Z,36.00
2023-04-18T14:40:53.585Z,36.35
2023-04-18T14:43:38.942Z,35.88
2023-04-18T14:46:24.319Z,35.71
2023-04-18T14:49:09.464Z,35.89
2023-04-18T14:51:54.790Z,35.77
2023-04-18T14:54:40.254Z,35.47
2023-04-18T14:57:26.601Z,35.07
2023-04-18T15:00:11.620Z,34.80
2023-04-18T15:02:56.893Z,34.48
2023-04-18T15:05:42.321Z,34.13
2023-04-18T15:08:27.760Z,34.55
2023-04-18T15:11:13.330Z,34.65
2023-04-18T15:13:58.907Z,34.84
2023-04-18T15:16:44.264Z,34.78
2023-04-18T15:19:29.634Z,34.10
2023-04-18T15:22:14.995Z,34.30
2023-04-18T15:25:00.215Z,34.01
2023-04-18T15:27:45.596Z,33.92
2023-04-18T15:30:30.846Z,33.60
2023-04-18T15:33:16.139Z,33.47
2023-04-18T15:36:01.438Z,33.12
2023-04-18T15:38:46.583Z,32.82
2023-04-18T15:41:34.881Z,32.63
2023-04-18T15:44:21.210Z,32.82
2023-04-18T15:47:06.656Z,32.82
2023-04-18T15:49:52.336Z,32.55
2023-04-18T15:52:37.564Z,32.42
2023-04-18T15:55:22.774Z,32.29
2023-04-18T15:58:08.053Z,32.61
2023-04-18T16:00:53.441Z,32.39
2023-04-18T16:03:38.797Z,32.17
2023-04-18T16:06:23.923Z,32.35
2023-04-18T16:09:11.747Z,32.30
2023-04-18T16:11:56.760Z,32.53
2023-04-18T16:14:41.895Z,32.24
2023-04-18T16:17:27.208Z,32.23
2023-04-18T16:20:12.431Z,32.43
2023-04-18T16:22:57.982Z,32.25
2023-04-18T16:25:43.380Z,32.26
2023-04-18T16:28:28.853Z,32.46
2023-04-18T16:31:13.911Z,32.31
2023-04-18T16:33:59.326Z,32.99
2023-04-18T16:36:44.550Z,33.41
2023-04-18T16:39:29.680Z,33.56
2023-04-18T16:42:15.886Z,33.66
2023-04-18T16:45:02.120Z,34.17
2023-04-18T16:47:47.693Z,34.23
2023-04-18T16:50:33.210Z,34.47
2023-04-18T16:53:18.421Z,34.52
2023-04-18T16:56:03.749Z,35.05
2023-04-18T16:58:49.058Z,34.77
2023-04-18T17:01:34.700Z,34.87
2023-04-18T17:04:20.156Z,35.40
2023-04-18T17:07:05.457Z,35.03
2023-04-18T17:09:50.765Z,34.80
2023-04-18T17:12:36.106Z,34.58
2023-04-18T17:15:21.425Z,34.15
2023-04-18T17:18:06.859Z,33.56
2023-04-18T17:20:52.347Z,32.94
2023-04-18T17:23:37.988Z,32.79
2023-04-18T17:26:26.113Z,33.96
2023-04-18T17:29:11.387Z,35.04
2023-04-18T17:31:56.802Z,35.29
2023-04-18T17:34:42.150Z,35.22
2023-04-18T17:37:27.560Z,34.90
2023-04-18T17:40:12.601Z,35.86
2023-04-18T17:42:57.997Z,36.17
2023-04-18T17:45:43.493Z,36.19
2023-04-18T17:48:28.731Z,36.09
2023-04-18T17:51:14.313Z,36.12
2023-04-18T17:53:59.590Z,36.46
2023-04-18T17:56:45.042Z,36.76
2023-04-18T17:59:30.433Z,36.77
2023-04-18T18:02:15.834Z,37.06
2023-04-18T18:05:01.218Z,37.41
2023-04-18T18:07:46.499Z,37.52
2023-04-18T18:10:32.006Z,37.62
2023-04-18T18:13:17.472Z,37.38
2023-04-18T18:16:02.771Z,37.46
2023-04-18T18:18:48.050Z,37.30
2023-04-18T18:21:33.505Z,37.07
2023-04-18T18:24:18.904Z,37.20
2023-04-18T18:27:04.005Z,35.74
2023-04-18T18:29:49.515Z,35.74
2023-04-18T18:32:38.153Z,35.24
2023-04-18T18:35:23.461Z,37.12
2023-04-18T18:38:08.298Z,36.50
2023-04-18T18:40:54.416Z,37.21
2023-04-18T18:43:40.116Z,37.39
2023-04-18T18:46:25.495Z,37.93
2023-04-18T18:49:10.737Z,38.14
2023-04-18T18:51:56.295Z,38.78
2023-04-18T18:54:41.610Z,38.83
2023-04-18T18:57:27.060Z,39.25
2023-04-18T19:00:12.436Z,39.13
2023-04-18T19:02:57.984Z,39.40
2023-04-18T19:05:43.371Z,39.41
2023-04-18T19:08:28.718Z,39.31
2023-04-18T19:11:17.084Z,39.46
2023-04-18T19:14:02.376Z,39.45
2023-04-18T19:16:47.801Z,39.50
2023-04-18T19:19:33.386Z,39.34
2023-04-18T19:22:18.386Z,39.66
2023-04-18T19:25:03.757Z,39.67
2023-04-18T19:27:49.516Z,39.21
2023-04-18T19:30:34.802Z,39.61
2023-04-18T19:33:20.306Z,39.56
2023-04-18T19:36:05.550Z,39.76
2023-04-18T19:38:51.119Z,39.08
2023-04-18T19:41:36.632Z,38.75
2023-04-18T19:44:21.707Z,39.48
2023-04-18T19:47:07.083Z,39.21
2023-04-18T19:49:52.375Z,39.75
2023-04-18T19:52:37.560Z,39.85
2023-04-18T19:55:22.787Z,39.65
2023-04-18T19:58:08.086Z,39.32
2023-04-18T20:00:53.236Z,39.18
2023-04-18T20:03:38.869Z,39.33
2023-04-18T20:06:24.829Z,39.58
2023-04-18T20:09:10.058Z,39.47
2023-04-18T20:11:55.438Z,39.08
2023-04-18T20:14:40.932Z,39.56
2023-04-18T20:17:26.474Z,39.23
2023-04-18T20:20:11.757Z,39.25
2023-04-18T20:22:57.200Z,39.32
2023-04-18T20:25:42.780Z,39.11
2023-04-18T20:28:28.155Z,38.98
2023-04-18T20:31:13.534Z,39.33
2023-04-18T20:33:58.863Z,39.91
2023-04-18T20:36:44.403Z,39.68
2023-04-18T20:39:29.699Z,39.40
2023-04-18T20:42:14.957Z,40.00
2023-04-18T20:45:00.387Z,39.83
2023-04-18T20:47:45.887Z,39.95
2023-04-18T20:50:31.280Z,39.85
2023-04-18T20:53:16.650Z,39.75
2023-04-18T20:56:01.759Z,39.46
2023-04-18T20:58:46.992Z,39.21
2023-04-18T21:01:32.436Z,39.95
2023-04-18T21:04:18.043Z,39.97
2023-04-18T21:07:03.238Z,39.31
2023-04-18T21:09:48.563Z,39.62
2023-04-18T21:12:33.990Z,40.13
2023-04-18T21:15:19.363Z,39.63
2023-04-18T21:18:04.745Z,40.08
2023-04-18T21:20:50.156Z,39.50
2023-04-18T21:23:37.333Z,39.69
2023-04-18T21:26:22.572Z,39.85
2023-04-18T21:29:07.788Z,39.84
2023-04-18T21:31:53.231Z,40.20
2023-04-18T21:34:38.723Z,39.69
2023-04-18T21:37:24.096Z,39.68
2023-04-18T21:40:09.348Z,39.43
2023-04-18T21:42:54.739Z,39.86
2023-04-18T21:45:40.163Z,39.37
2023-04-18T21:48:25.537Z,39.79
2023-04-18T21:51:10.822Z,39.22
2023-04-18T21:53:56.219Z,39.27
2023-04-18T21:56:41.541Z,39.53
2023-04-18T21:59:27.008Z,39.72
2023-04-18T22:02:12.326Z,39.85
2023-04-18T22:04:57.816Z,39.28
2023-04-18T22:07:50.500Z,39.50
2023-04-18T22:10:40.343Z,39.50
2023-04-18T22:13:25.724Z,39.42
2023-04-18T22:16:11.180Z,39.03
2023-04-18T22:18:56.709Z,39.49
2023-04-18T22:21:42.028Z,39.52
2023-04-18T22:24:27.255Z,39.46
2023-04-18T22:27:12.664Z,39.49
2023-04-18T22:29:57.711Z,39.67
2023-04-18T22:32:43.188Z,39.42
2023-04-18T22:35:28.678Z,39.26
2023-04-18T22:38:13.950Z,39.71
2023-04-18T22:40:59.154Z,38.97
2023-04-18T22:43:44.294Z,39.65
2023-04-18T22:46:29.522Z,38.99
2023-04-18T22:49:14.676Z,39.08
2023-04-18T22:52:00.160Z,39.05
2023-04-18T22:54:45.546Z,39.43
2023-04-18T22:57:31.031Z,39.30
2023-04-18T23:00:16.213Z,39.53
2023-04-18T23:03:01.571Z,39.52
2023-04-18T23:05:46.917Z,39.04
2023-04-18T23:08:32.083Z,39.39
2023-04-18T23:11:17.421Z,39.40
2023-04-18T23:14:02.759Z,39.63
2023-04-18T23:16:48.048Z,39.04
2023-04-18T23:19:33.541Z,39.31
2023-04-18T23:22:18.747Z,39.19
2023-04-18T23:25:04.071Z,39.25
2023-04-18T23:27:48.942Z,39.28
2023-04-18T23:30:34.516Z,39.03
2023-04-18T23:33:19.615Z,39.66
2023-04-18T23:36:05.196Z,39.48
2023-04-18T23:38:50.361Z,39.45
2023-04-18T23:41:35.354Z,39.08
2023-04-18T23:44:20.820Z,39.41
2023-04-18T23:47:06.279Z,39.14
2023-04-18T23:49:51.424Z,39.40
2023-04-18T23:52:36.699Z,39.23
2023-04-18T23:55:21.836Z,39.20
2023-04-18T23:58:07.384Z,39.48
